Time;durP1;ratioP1;P1;durP2;ratioP2;P2;SDS_P1;SDS_P2;PMS_P1;PMS_P2;Temp;Humidity;BMP_temperature;BMP_pressure;BME280_temperature;BME280_humidity;BME280_pressure;Samples;Min_cycle;Max_cycle;Signal;HPM_P1;HPM_P2
2022/09/01 00:51:28;;;;;;;4.23;2.07;;;18.30;99.90;;;;;;6278412;22;20400;-84
2022/09/01 01:15:21;;;;;;;6.00;3.90;;;18.10;99.90;;;;;;6336315;22;21316;-83
2022/09/01 01:41:18;;;;;;;4.23;2.80;;;17.80;99.90;;;;;;6219234;23;20733;-83
2022/09/01 01:44:55;;;;;;;;;;;;;;;;;;;;;
2022/09/01 01:58:24;;;;;;;4.20;2.90;;;17.50;99.90;;;;;;6249423;23;20888;-84
2022/09/01 02:01:02;;;;;;;3.90;2.80;;;17.40;99.90;;;;;;6214690;23;20531;-84
2022/09/01 02:06:31;;;;;;;5.00;2.80;;;17.30;99.90;;;;;;6345197;22;20456;-83
2022/09/01 02:24:19;;;;;;;4.23;2.30;;;17.20;99.90;;;;;;6345188;22;20455;-84
2022/09/01 02:31:07;;;;;;;13.20;2.90;;;17.10;1.00;;;;;;6218101;23;20395;-84
2022/09/01 02:48:20;;;;;;;;;;;;;;;;;;;;;
2022/09/01 02:50:58;;;;;;;6.53;3.50;;;16.90;1.00;;;;;;5930215;24;20484;-84
2022/09/01 03:10:41;;;;;;;4.60;3.27;;;16.60;1.00;;;;;;6186961;23;20460;-84
2022/09/01 03:28:00;;;;;;;;;;;;;;;;;;;;;
2022/09/01 03:36:34;;;;;;;5.30;4.00;;;16.50;1.00;;;;;;6343919;22;20376;-84
2022/09/01 03:39:24;;;;;;;10.20;3.97;;;16.50;1.00;;;;;;6314524;22;20449;-84
2022/09/01 03:51:41;;;;;;;4.33;3.93;;;16.40;50.70;;;;;;6129568;23;20406;-84
2022/09/01 03:58:40;;;;;;;;;;;;;;;;;;;;;
2022/09/01 04:01:12;;;;;;;8.33;4.50;;;16.30;75.50;;;;;;6089586;23;20415;-84
2022/09/01 04:39:27;;;;;;;7.53;4.37;;;16.00;99.90;;;;;;6341348;22;20394;-83
2022/09/01 05:07:38;;;;;;;;;;;;;;;;;;;;;
2022/09/01 05:18:22;;;;;;;10.57;4.70;;;16.10;1.00;;;;;;6158649;23;20388;-84
2022/09/01 05:28:34;;;;;;;8.63;5.23;;;16.50;99.90;;;;;;6193240;23;20523;-85
2022/09/01 05:31:20;;;;;;;12.67;5.60;;;16.70;99.90;;;;;;6231882;22;20388;-86
2022/09/01 06:21:21;;;;;;;;;;;;;;;;;;;;;
2022/09/01 07:12:32;;;;;;;;;;;;;;;;;;;;;
2022/09/01 08:11:44;;;;;;;6.20;2.40;;;49.20;1.00;;;;;;6092086;23;20426;-84
2022/09/01 08:15:17;;;;;;;;;;;;;;;;;;;;;
2022/09/01 08:21:59;;;;;;;5.47;2.37;;;49.10;1.00;;;;;;6005981;23;20694;-83
2022/09/01 08:24:46;;;;;;;8.17;2.10;;;49.00;1.00;;;;;;5981444;23;20527;-83
2022/09/01 08:30:55;;;;;;;15.47;2.67;;;49.00;1.00;;;;;;6005138;23;20398;-83
2022/09/01 09:05:51;;;;;;;;;;;;;;;;;;;;;
2022/09/01 09:20:15;;;;;;;6.40;1.93;;;47.90;1.00;;;;;;6336647;22;20452;-85
2022/09/01 09:22:43;;;;;;;4.60;1.73;;;47.50;1.00;;;;;;6293644;22;20457;-82
2022/09/01 09:25:28;;;;;;;4.30;1.80;;;47.90;1.00;;;;;;6335070;22;20467;-82
2022/09/01 09:28:10;;;;;;;2.33;1.57;;;47.50;1.00;;;;;;6336518;22;20690;-83
2022/09/01 09:30:35;;;;;;;4.83;1.90;;;46.90;1.00;;;;;;6311577;22;20909;-84
2022/09/01 09:33:39;;;;;;;4.37;1.70;;;46.10;1.00;;;;;;6339538;22;20434;-83
2022/09/01 09:36:16;;;;;;;3.37;1.50;;;45.80;1.00;;;;;;6338388;22;20230;-83
2022/09/01 09:39:15;;;;;;;1.57;1.13;;;45.90;1.00;;;;;;6311228;22;20471;-84
2022/09/01 09:42:14;;;;;;;1.93;1.23;;;45.60;1.00;;;;;;6337242;22;20388;-84
2022/09/01 09:44:54;;;;;;;3.63;1.10;;;45.80;1.00;;;;;;6336559;22;20909;-83
2022/09/01 09:48:02;;;;;;;4.17;1.23;;;45.90;1.00;;;;;;6311450;22;20492;-84
2022/09/01 09:50:42;;;;;;;2.60;1.27;;;45.30;1.00;;;;;;6187709;23;20384;-83
2022/09/01 09:53:27;;;;;;;4.20;1.73;;;46.00;1.00;;;;;;6187244;23;20722;-83
2022/09/01 09:56:18;;;;;;;3.67;1.50;;;46.10;1.00;;;;;;6297338;22;20554;-83
2022/09/01 09:58:50;;;;;;;3.60;1.50;;;46.30;1.00;;;;;;6302227;22;20443;-84
2022/09/01 10:01:34;;;;;;;;;;;;;;;;;;;;;
2022/09/01 10:04:12;;;;;;;5.83;1.67;;;45.90;1.00;;;;;;6338399;22;20504;-84
2022/09/01 10:06:47;;;;;;;2.80;1.33;;;46.00;1.00;;;;;;6338219;22;20360;-83
2022/09/01 10:09:45;;;;;;;3.50;1.20;;;46.20;1.00;;;;;;6336966;22;20442;-83
2022/09/01 10:12:30;;;;;;;1.77;1.00;;;46.90;1.00;;;;;;6336812;22;20902;-84
2022/09/01 10:15:06;;;;;;;1.67;1.20;;;46.80;1.00;;;;;;6337743;22;20999;-84
2022/09/01 10:17:41;;;;;;;5.97;1.57;;;44.90;1.00;;;;;;6336384;22;20377;-83
2022/09/01 10:20:17;;;;;;;3.83;1.10;;;45.00;1.00;;;;;;6338844;22;20749;-83
2022/09/01 10:22:43;;;;;;;1.57;1.00;;;45.20;1.00;;;;;;6342844;22;20428;-83
2022/09/01 10:25:20;;;;;;;3.97;1.57;;;45.90;1.00;;;;;;6346293;22;20420;-83
2022/09/01 10:27:57;;;;;;;3.20;1.20;;;46.70;1.00;;;;;;6346586;22;20376;-82
2022/09/01 10:30:23;;;;;;;6.70;1.60;;;47.00;1.00;;;;;;6350406;22;20368;-83
2022/09/01 10:32:52;;;;;;;2.33;0.93;;;47.20;1.00;;;;;;6348325;22;20397;-83
2022/09/01 10:35:36;;;;;;;4.30;1.30;;;46.90;1.00;;;;;;6346879;22;20818;-83
2022/09/01 10:38:19;;;;;;;3.27;1.33;;;46.70;1.00;;;;;;6345044;22;20415;-83
2022/09/01 10:40:49;;;;;;;2.30;1.10;;;46.40;1.00;;;;;;6348182;22;20384;-83
2022/09/01 10:43:31;;;;;;;4.20;1.10;;;46.80;1.00;;;;;;6346016;22;20460;-83
2022/09/01 10:45:57;;;;;;;1.50;1.07;;;46.80;1.00;;;;;;6349566;22;20358;-83
2022/09/01 10:48:33;;;;;;;1.60;1.00;;;45.90;1.00;;;;;;6347450;22;20854;-83
2022/09/01 10:51:14;;;;;;;1.67;1.13;;;44.40;1.00;;;;;;6346273;22;20183;-83
2022/09/01 10:53:51;;;;;;;5.90;1.83;;;42.60;1.00;;;;;;6347110;22;21272;-83
2022/09/01 10:56:36;;;;;;;1.70;0.93;;;42.30;1.00;;;;;;6348196;22;20403;-83
2022/09/01 10:59:20;;;;;;;3.10;1.27;;;42.50;1.00;;;;;;6347877;22;20439;-83
2022/09/01 11:01:46;;;;;;;2.73;1.20;;;43.00;1.00;;;;;;6348166;22;20373;-83
2022/09/01 11:04:19;;;;;;;2.63;1.13;;;43.50;1.00;;;;;;6320771;22;20424;-83
2022/09/01 11:06:50;;;;;;;3.40;1.37;;;43.50;1.00;;;;;;6321184;22;20642;-83
2022/09/01 11:09:34;;;;;;;2.27;1.03;;;43.80;1.00;;;;;;6321420;22;20983;-83
2022/09/01 11:12:29;;;;;;;1.53;0.90;;;44.00;1.00;;;;;;6349818;22;20800;-83
2022/09/01 11:14:56;;;;;;;2.30;1.23;;;44.40;1.00;;;;;;6349191;22;20381;-82
2022/09/01 11:17:36;;;;;;;1.63;0.90;;;44.20;1.00;;;;;;6348935;22;20389;-83
2022/09/01 11:20:23;;;;;;;1.30;1.00;;;44.50;1.00;;;;;;6321977;22;20419;-83
2022/09/01 11:23:00;;;;;;;3.00;2.20;;;44.80;1.00;;;;;;6345947;22;20420;-82
2022/09/01 11:25:42;;;;;;;5.03;1.20;;;45.20;1.00;;;;;;6320073;22;20435;-83
2022/09/01 11:28:08;;;;;;;2.50;1.10;;;44.60;1.00;;;;;;6347695;22;20389;-83
2022/09/01 11:30:53;;;;;;;4.13;1.00;;;44.40;1.00;;;;;;6319362;22;20404;-83
2022/09/01 11:33:48;;;;;;;2.07;0.90;;;44.10;1.00;;;;;;6348277;22;20163;-83
2022/09/01 11:36:28;;;;;;;2.03;0.90;;;43.90;1.00;;;;;;6311096;22;20412;-83
2022/09/01 11:38:57;;;;;;;1.93;0.90;;;43.50;1.00;;;;;;6322058;22;20387;-83
2022/09/01 11:41:30;;;;;;;1.77;1.20;;;42.60;1.00;;;;;;6322691;22;20389;-83
2022/09/01 11:44:02;;;;;;;4.40;1.17;;;41.70;1.00;;;;;;6319158;22;20429;-82
2022/09/01 11:46:33;;;;;;;4.23;1.43;;;40.80;1.00;;;;;;6319244;22;20384;-82
2022/09/01 11:49:07;;;;;;;4.80;1.30;;;40.90;1.00;;;;;;6318190;22;20369;-81
2022/09/01 11:51:45;;;;;;;4.90;1.43;;;40.70;1.00;;;;;;6318290;22;21273;-83
2022/09/01 11:54:13;;;;;;;3.10;1.50;;;40.90;1.00;;;;;;6316848;22;20392;-83
2022/09/01 11:56:44;;;;;;;3.07;1.50;;;41.50;1.00;;;;;;6314600;22;20717;-82
2022/09/01 11:59:09;;;;;;;2.20;1.40;;;41.70;1.00;;;;;;6315354;22;20392;-82
2022/09/01 12:01:37;;;;;;;1.80;1.23;;;41.90;1.00;;;;;;6315178;22;20470;-83
2022/09/01 12:04:34;;;;;;;5.03;1.30;;;41.90;1.00;;;;;;6341020;22;20189;-82
2022/09/01 12:07:01;;;;;;;4.13;1.40;;;41.70;1.00;;;;;;6290335;22;20396;-82
2022/09/01 12:09:43;;;;;;;2.67;1.07;;;41.50;1.00;;;;;;6313854;22;20417;-82
2022/09/01 12:12:29;;;;;;;3.70;1.30;;;42.00;1.00;;;;;;6315210;22;20454;-82
2022/09/01 12:14:57;;;;;;;1.20;1.00;;;41.80;1.00;;;;;;6314638;22;20381;-81
2022/09/01 12:17:24;;;;;;;2.37;1.30;;;41.70;1.00;;;;;;6314371;22;20396;-83
2022/09/01 12:19:50;;;;;;;3.20;1.20;;;41.80;1.00;;;;;;6314487;22;20449;-82
2022/09/01 12:22:21;;;;;;;3.10;1.27;;;41.30;1.00;;;;;;6315616;22;20436;-80
2022/09/01 12:24:51;;;;;;;2.60;1.17;;;41.50;1.00;;;;;;6340986;22;20517;-82
2022/09/01 12:27:16;;;;;;;4.50;1.13;;;41.70;1.00;;;;;;6340229;22;20377;-83
2022/09/01 12:29:42;;;;;;;2.07;1.03;;;41.80;1.00;;;;;;6314701;22;20768;-83
2022/09/01 12:32:18;;;;;;;2.43;1.27;;;42.20;1.00;;;;;;6315054;22;20620;-83
2022/09/01 12:34:59;;;;;;;3.07;1.40;;;42.20;1.00;;;;;;6339091;22;20361;-82
2022/09/01 12:37:26;;;;;;;3.10;1.60;;;40.70;1.00;;;;;;6313566;22;20399;-83
2022/09/01 12:39:54;;;;;;;4.20;2.53;;;39.10;1.00;;;;;;6315228;22;20447;-83
2022/09/01 12:42:29;;;;;;;5.37;1.50;;;37.30;1.00;;;;;;6341626;22;20397;-83
2022/09/01 12:45:29;;;;;;;1.30;1.00;;;36.50;1.00;;;;;;6314781;22;20812;-84
2022/09/01 12:48:00;;;;;;;3.43;1.60;;;37.00;1.00;;;;;;6341041;22;20431;-83
2022/09/01 12:50:25;;;;;;;1.97;1.23;;;37.70;1.00;;;;;;6341516;22;20385;-83
2022/09/01 12:52:53;;;;;;;2.53;1.43;;;37.80;1.00;;;;;;6341704;22;20407;-83
2022/09/01 12:55:24;;;;;;;1.80;1.47;;;38.10;1.00;;;;;;6314818;22;20169;-83
2022/09/01 12:57:53;;;;;;;5.93;1.50;;;38.50;1.00;;;;;;6339451;22;20369;-83
2022/09/01 13:00:30;;;;;;;3.93;1.30;;;38.90;1.00;;;;;;6315203;22;20442;-83
2022/09/01 13:03:02;;;;;;;3.57;1.53;;;39.60;1.00;;;;;;6316421;22;20416;-82
2022/09/01 13:05:40;;;;;;;3.17;1.57;;;40.10;1.00;;;;;;6340546;22;20806;-83
2022/09/01 13:08:18;;;;;;;2.90;1.20;;;40.20;1.00;;;;;;6316498;22;20411;-83
2022/09/01 13:10:47;;;;;;;1.67;1.20;;;40.50;1.00;;;;;;6343776;22;20387;-83
2022/09/01 13:13:14;;;;;;;1.50;1.20;;;40.70;1.00;;;;;;6343250;22;20403;-83
2022/09/01 13:15:46;;;;;;;2.57;1.50;;;40.70;1.00;;;;;;6314917;22;20389;-83
2022/09/01 13:18:13;;;;;;;4.50;1.50;;;40.20;1.00;;;;;;6314488;22;20381;-82
2022/09/01 13:20:40;;;;;;;7.00;1.30;;;39.40;1.00;;;;;;6314257;22;20381;-82
2022/09/01 13:23:06;;;;;;;3.57;1.77;;;38.80;1.00;;;;;;6313801;22;20427;-83
2022/09/01 13:25:32;;;;;;;1.90;1.27;;;38.40;1.00;;;;;;6312089;22;20432;-83
2022/09/01 13:27:59;;;;;;;4.00;1.50;;;38.20;1.00;;;;;;6313465;22;20469;-83
2022/09/01 13:30:27;;;;;;;2.63;1.50;;;38.00;1.00;;;;;;6313883;22;20151;-83
2022/09/01 13:32:53;;;;;;;2.03;1.47;;;37.80;1.00;;;;;;6311886;22;20401;-83
2022/09/01 13:35:21;;;;;;;2.87;1.33;;;37.80;1.00;;;;;;6340009;22;20720;-83
2022/09/01 13:37:47;;;;;;;1.90;1.50;;;38.00;1.00;;;;;;6310914;22;20162;-82
2022/09/01 13:40:15;;;;;;;2.37;1.30;;;38.00;1.00;;;;;;6312477;22;20884;-81
2022/09/01 13:42:41;;;;;;;5.23;1.43;;;37.50;1.00;;;;;;6337048;22;20436;-82
2022/09/01 13:45:09;;;;;;;3.50;1.50;;;37.20;1.00;;;;;;6311486;22;20503;-82
2022/09/01 13:47:34;;;;;;;2.23;1.40;;;36.70;1.00;;;;;;6313884;22;20385;-81
2022/09/01 13:50:00;;;;;;;1.70;1.20;;;36.30;1.00;;;;;;6339168;22;21195;-83
2022/09/01 13:52:25;;;;;;;1.60;1.50;;;36.30;1.00;;;;;;6312619;22;20171;-83
2022/09/01 13:54:51;;;;;;;2.33;1.53;;;36.30;1.00;;;;;;6313193;22;20628;-83
2022/09/01 13:57:17;;;;;;;2.60;1.47;;;36.60;1.00;;;;;;6341634;22;20603;-82
2022/09/01 13:59:43;;;;;;;2.30;1.43;;;36.90;1.00;;;;;;6312657;22;20786;-83
2022/09/01 14:02:09;;;;;;;2.70;1.50;;;37.10;1.00;;;;;;6341637;22;20253;-83
2022/09/01 14:04:35;;;;;;;1.73;1.50;;;37.20;1.00;;;;;;6340815;22;20444;-82
2022/09/01 14:07:01;;;;;;;4.00;1.50;;;36.90;1.00;;;;;;6313678;22;20388;-83
2022/09/01 14:09:27;;;;;;;3.47;1.70;;;36.80;1.00;;;;;;6341270;22;20158;-83
2022/09/01 14:11:56;;;;;;;2.10;1.40;;;36.70;1.00;;;;;;6340450;22;20143;-83
2022/09/01 14:14:22;;;;;;;5.00;1.80;;;36.30;1.00;;;;;;6342110;22;20385;-83
2022/09/01 14:16:48;;;;;;;2.87;1.60;;;35.80;1.00;;;;;;6313601;22;20389;-83
2022/09/01 14:19:23;;;;;;;2.13;1.43;;;35.40;1.00;;;;;;6311558;22;20503;-83
2022/09/01 14:21:49;;;;;;;2.10;1.90;;;35.00;1.00;;;;;;6339725;22;20368;-82
2022/09/01 14:24:18;;;;;;;3.23;1.73;;;34.80;1.00;;;;;;6340793;22;20918;-83
2022/09/01 14:26:49;;;;;;;2.10;1.80;;;34.30;1.00;;;;;;6342006;22;20154;-83
2022/09/01 14:29:15;;;;;;;2.87;2.10;;;33.60;1.00;;;;;;6314958;22;20980;-82
2022/09/01 14:31:46;;;;;;;1.97;1.43;;;33.00;1.00;;;;;;6312655;22;20389;-83
2022/09/01 14:34:11;;;;;;;4.33;2.10;;;32.90;1.00;;;;;;6314398;22;20151;-83
2022/09/01 14:36:38;;;;;;;2.43;1.80;;;33.10;1.00;;;;;;6314026;22;20377;-83
2022/09/01 14:39:04;;;;;;;3.20;2.07;;;33.30;1.00;;;;;;6315863;22;20159;-83
2022/09/01 14:41:30;;;;;;;2.73;1.80;;;33.40;1.00;;;;;;6315034;22;21138;-83
2022/09/01 14:44:01;;;;;;;2.80;2.13;;;33.30;1.00;;;;;;6313688;22;20461;-83
2022/09/01 14:46:29;;;;;;;2.83;2.00;;;33.20;1.00;;;;;;6314805;22;20392;-83
2022/09/01 14:48:55;;;;;;;2.30;2.03;;;32.90;1.00;;;;;;6315385;22;20382;-83
2022/09/01 14:51:26;;;;;;;2.40;2.13;;;32.70;1.00;;;;;;6315362;22;20439;-82
2022/09/01 14:53:53;;;;;;;3.87;1.67;;;32.40;1.00;;;;;;6316050;22;20416;-82
2022/09/01 14:56:20;;;;;;;3.00;1.80;;;32.40;1.00;;;;;;6316438;22;20404;-82
2022/09/01 14:58:47;;;;;;;1.97;1.77;;;32.30;1.00;;;;;;6315961;22;20846;-83
2022/09/01 15:01:15;;;;;;;6.60;1.87;;;32.30;1.00;;;;;;6341562;22;20373;-84
2022/09/01 15:03:42;;;;;;;3.43;1.60;;;32.30;1.00;;;;;;6315602;22;20917;-83
2022/09/01 15:06:11;;;;;;;2.67;2.10;;;32.30;1.00;;;;;;6314570;22;20463;-83
2022/09/01 15:08:37;;;;;;;2.60;2.07;;;32.20;1.00;;;;;;6314685;22;20413;-83
2022/09/01 15:11:11;;;;;;;5.03;2.73;;;32.20;1.00;;;;;;6312591;22;20912;-82
2022/09/01 15:13:38;;;;;;;2.20;2.00;;;32.00;1.00;;;;;;6313030;22;20419;-83
2022/09/01 15:16:11;;;;;;;2.70;2.07;;;31.60;1.00;;;;;;6313550;22;20404;-83
2022/09/01 15:18:37;;;;;;;3.20;2.23;;;31.20;1.00;;;;;;6313766;22;20408;-83
2022/09/01 15:21:04;;;;;;;4.33;2.43;;;30.90;1.00;;;;;;6339239;22;20445;-82
2022/09/01 15:23:29;;;;;;;3.70;2.50;;;30.70;1.00;;;;;;6313275;22;20506;-82
2022/09/01 15:25:56;;;;;;;3.83;2.27;;;30.50;1.00;;;;;;6311879;22;20397;-83
2022/09/01 15:28:23;;;;;;;6.03;2.60;;;30.60;1.00;;;;;;6314474;22;20151;-83
2022/09/01 15:30:50;;;;;;;3.03;2.30;;;30.60;1.00;;;;;;6315371;22;20411;-83
2022/09/01 15:33:17;;;;;;;2.67;2.17;;;30.50;1.00;;;;;;6315178;22;20436;-83
2022/09/01 15:35:44;;;;;;;4.37;2.47;;;30.50;1.00;;;;;;6342252;22;20415;-83
2022/09/01 15:38:10;;;;;;;2.90;1.90;;;30.40;1.00;;;;;;6314701;22;20387;-82
2022/09/01 15:40:39;;;;;;;2.30;2.10;;;30.30;1.00;;;;;;6342090;22;20704;-82
2022/09/01 15:43:05;;;;;;;2.33;2.00;;;30.20;1.00;;;;;;6342311;22;20409;-83
2022/09/01 15:45:31;;;;;;;3.20;2.50;;;30.20;1.00;;;;;;6314452;22;20417;-83
2022/09/01 15:47:57;;;;;;;2.87;2.27;;;30.20;1.00;;;;;;6341526;22;20147;-83
2022/09/01 15:50:25;;;;;;;4.67;2.47;;;30.20;1.00;;;;;;6315175;22;20466;-82
2022/09/01 15:52:58;;;;;;;2.67;2.30;;;30.30;1.00;;;;;;6314006;22;20258;-81
2022/09/01 15:55:29;;;;;;;2.97;2.40;;;30.50;1.00;;;;;;6342268;22;20408;-82
2022/09/01 15:57:56;;;;;;;4.07;2.90;;;30.50;1.00;;;;;;6314829;22;20851;-82
2022/09/01 16:00:23;;;;;;;2.90;2.00;;;;;;;;;;6340233;22;20902;-82
2022/09/01 16:02:48;;;;;;;3.67;2.57;;;30.10;1.00;;;;;;6314932;22;20393;-83
2022/09/01 16:05:17;;;;;;;3.57;2.13;;;29.90;1.00;;;;;;6342509;22;20392;-81
2022/09/01 16:07:43;;;;;;;5.83;2.47;;;29.80;1.00;;;;;;6314552;22;20167;-82
2022/09/01 16:10:10;;;;;;;2.80;2.03;;;29.80;1.00;;;;;;6315848;22;20393;-82
2022/09/01 16:12:39;;;;;;;5.50;2.40;;;29.70;1.00;;;;;;6343693;22;20396;-82
2022/09/01 16:15:05;;;;;;;4.63;2.43;;;29.60;1.00;;;;;;6315720;22;20440;-82
2022/09/01 16:17:55;;;;;;;2.53;2.33;;;29.40;1.00;;;;;;6342522;22;20370;-82
2022/09/01 16:20:34;;;;;;;3.33;2.70;;;29.20;1.00;;;;;;6314681;22;20377;-82
2022/09/01 16:23:22;;;;;;;4.30;2.47;;;29.10;1.00;;;;;;6314635;22;20527;-82
2022/09/01 16:25:48;;;;;;;4.90;3.00;;;29.00;1.00;;;;;;6315502;22;20731;-82
2022/09/01 16:28:37;;;;;;;2.40;2.20;;;29.00;1.00;;;;;;6342997;22;20401;-82
2022/09/01 16:31:15;;;;;;;2.50;2.30;;;29.10;1.00;;;;;;6314056;22;20369;-84
2022/09/01 16:34:06;;;;;;;5.00;2.40;;;29.20;1.00;;;;;;6342379;22;20473;-83
2022/09/01 16:36:39;;;;;;;7.10;2.20;;;29.10;1.00;;;;;;6343300;22;20354;-84
2022/09/01 16:39:17;;;;;;;2.83;2.57;;;29.10;1.00;;;;;;6344568;22;20358;-83
2022/09/01 16:42:17;;;;;;;5.30;2.63;;;29.00;1.00;;;;;;6342668;22;20406;-84
2022/09/01 16:44:56;;;;;;;2.73;2.50;;;28.80;1.00;;;;;;6345241;22;20356;-84
2022/09/01 16:47:45;;;;;;;3.50;2.50;;;28.70;1.00;;;;;;6343888;22;20357;-83
2022/09/01 16:50:47;;;;;;;2.67;2.47;;;28.50;1.00;;;;;;6342349;22;20893;-84
2022/09/01 16:53:32;;;;;;;3.30;3.00;;;28.30;1.00;;;;;;6339537;22;20475;-84
2022/09/01 16:56:01;;;;;;;5.30;2.90;;;28.20;1.00;;;;;;6339770;22;20444;-85
2022/09/01 16:58:45;;;;;;;4.03;2.83;;;28.00;1.00;;;;;;6339684;22;20427;-85
2022/09/01 17:01:22;;;;;;;7.43;2.70;;;27.80;1.00;;;;;;6340138;22;20886;-85
2022/09/01 17:04:16;;;;;;;6.93;2.63;;;27.70;1.00;;;;;;6311581;22;20397;-85
2022/09/01 17:10:35;;;;;;;5.10;2.80;;;27.50;1.00;;;;;;6342181;22;20365;-85
2022/09/01 17:13:36;;;;;;;5.00;3.13;;;27.50;1.00;;;;;;6306078;22;20432;-83
2022/09/01 17:16:41;;;;;;;3.03;2.73;;;27.50;1.00;;;;;;6315247;22;20416;-84
2022/09/01 17:19:16;;;;;;;3.20;2.90;;;27.40;1.00;;;;;;6273525;22;20420;-84
2022/09/01 17:21:51;;;;;;;3.63;2.73;;;27.40;1.00;;;;;;6314897;22;20453;-83
2022/09/01 17:24:51;;;;;;;2.90;2.70;;;27.30;1.00;;;;;;6315019;22;20393;-83
2022/09/01 17:30:44;;;;;;;5.90;2.90;;;27.20;1.00;;;;;;6341270;22;20436;-84
2022/09/01 17:34:03;;;;;;;3.43;2.70;;;27.10;1.00;;;;;;6343408;22;20381;-85
2022/09/01 17:37:04;;;;;;;3.33;2.90;;;26.90;1.00;;;;;;6207241;23;20408;-84
2022/09/01 17:39:43;;;;;;;3.53;3.17;;;26.80;1.00;;;;;;6221006;23;20406;-84
2022/09/01 17:42:48;;;;;;;5.30;3.10;;;26.70;1.00;;;;;;6314731;22;20403;-82
2022/09/01 17:49:04;;;;;;;3.40;3.10;;;26.60;1.00;;;;;;6311471;22;20375;-83
2022/09/01 17:51:42;;;;;;;5.27;2.93;;;26.50;1.00;;;;;;6317277;22;20709;-83
2022/09/01 17:54:34;;;;;;;3.67;2.60;;;26.40;1.00;;;;;;6343515;22;20412;-83
2022/09/01 17:57:13;;;;;;;11.23;3.03;;;26.30;1.00;;;;;;6315701;22;20475;-84
2022/09/01 17:59:58;;;;;;;8.60;2.80;;;26.30;1.00;;;;;;6316427;22;20383;-83
2022/09/01 18:02:57;;;;;;;5.70;3.07;;;26.20;1.00;;;;;;6317680;22;20468;-83
2022/09/01 18:05:25;;;;;;;3.53;2.70;;;26.10;1.00;;;;;;6312063;22;20849;-83
2022/09/01 18:08:03;;;;;;;4.00;2.87;;;26.00;1.00;;;;;;6343603;22;20369;-82
2022/09/01 18:10:48;;;;;;;6.00;3.17;;;26.00;1.00;;;;;;6314675;22;20384;-82
2022/09/01 18:13:40;;;;;;;6.80;3.13;;;25.90;1.00;;;;;;6314093;22;21263;-82
2022/09/01 18:16:13;;;;;;;5.40;3.20;;;25.80;1.00;;;;;;6314422;22;20448;-82
2022/09/01 18:18:43;;;;;;;5.03;3.20;;;25.70;1.00;;;;;;6340708;22;20351;-83
2022/09/01 18:21:28;;;;;;;5.17;2.80;;;25.60;1.00;;;;;;6315060;22;20515;-84
2022/09/01 18:24:00;;;;;;;6.23;3.27;;;25.50;1.00;;;;;;6340305;22;20501;-83
2022/09/01 18:26:31;;;;;;;6.87;3.37;;;25.30;1.00;;;;;;6342961;22;20744;-82
2022/09/01 18:29:01;;;;;;;6.43;3.50;;;25.30;1.00;;;;;;6316003;22;20723;-84
2022/09/01 18:31:33;;;;;;;4.00;2.97;;;25.30;1.00;;;;;;6315517;22;20389;-83
2022/09/01 18:34:04;;;;;;;6.17;3.30;;;25.20;1.00;;;;;;6341865;22;20418;-84
2022/09/01 18:36:41;;;;;;;3.27;2.97;;;25.10;1.20;;;;;;6315193;22;20386;-84
2022/09/01 18:39:31;;;;;;;3.03;2.50;;;25.00;1.10;;;;;;6342624;22;20407;-83
2022/09/01 18:42:20;;;;;;;3.73;2.93;;;24.90;1.20;;;;;;6342641;22;20350;-84
2022/09/01 18:44:56;;;;;;;4.27;2.13;;;24.80;2.90;;;;;;6294867;22;20850;-84
2022/09/01 18:47:35;;;;;;;5.73;1.90;;;24.70;2.40;;;;;;6314514;22;20401;-84
2022/09/01 18:51:02;;;;;;;2.60;2.20;;;24.70;1.80;;;;;;6314197;22;20456;-83
2022/09/01 18:53:48;;;;;;;5.70;2.20;;;24.60;2.50;;;;;;6276706;22;20401;-83
2022/09/01 18:56:57;;;;;;;2.80;2.20;;;24.60;1.20;;;;;;6251599;22;20472;-84
2022/09/01 18:59:29;;;;;;;5.20;2.63;;;24.50;1.20;;;;;;6214261;23;20161;-84
2022/09/01 19:02:02;;;;;;;2.40;1.80;;;24.50;1.70;;;;;;6218776;23;20976;-83
2022/09/01 19:04:41;;;;;;;5.00;2.10;;;24.40;1.50;;;;;;6294600;22;20376;-84
2022/09/01 19:07:09;;;;;;;3.47;2.60;;;24.40;1.30;;;;;;6316472;22;20414;-83
2022/09/01 19:09:34;;;;;;;2.97;2.10;;;24.40;1.30;;;;;;6315159;22;20392;-84
2022/09/01 19:12:40;;;;;;;3.03;2.00;;;24.30;1.20;;;;;;6343010;22;20383;-84
2022/09/01 19:15:18;;;;;;;9.20;1.83;;;24.30;2.20;;;;;;6287584;22;20294;-83
2022/09/01 19:18:11;;;;;;;2.70;1.80;;;24.20;1.80;;;;;;6342793;22;20374;-83
2022/09/01 19:20:50;;;;;;;2.20;1.80;;;24.10;1.80;;;;;;6316019;22;20472;-84
2022/09/01 19:23:24;;;;;;;3.47;1.70;;;24.00;1.00;;;;;;6343978;22;20449;-84
2022/09/01 19:25:52;;;;;;;4.07;2.33;;;23.90;1.80;;;;;;6316533;22;20412;-84
2022/09/01 19:28:38;;;;;;;4.60;2.17;;;23.80;2.20;;;;;;6347049;22;20380;-84
2022/09/01 19:31:31;;;;;;;5.27;2.07;;;23.70;1.60;;;;;;6348625;22;20364;-84
2022/09/01 19:34:01;;;;;;;6.80;1.63;;;23.50;1.40;;;;;;6321554;22;20447;-84
2022/09/01 19:36:47;;;;;;;4.43;1.50;;;23.40;1.90;;;;;;6346115;22;20368;-84
2022/09/01 19:39:19;;;;;;;4.37;1.90;;;23.40;1.80;;;;;;6323890;22;20387;-84
2022/09/01 19:41:50;;;;;;;3.50;2.00;;;23.20;1.90;;;;;;6343794;22;20947;-83
2022/09/01 19:44:18;;;;;;;3.60;1.63;;;23.20;2.20;;;;;;6344188;22;20383;-84
2022/09/01 19:46:49;;;;;;;3.97;1.73;;;23.10;1.80;;;;;;6316579;22;20387;-83
2022/09/01 19:49:27;;;;;;;3.23;1.83;;;23.10;1.70;;;;;;6345844;22;20358;-84
2022/09/01 19:52:21;;;;;;;6.13;2.30;;;23.10;1.70;;;;;;6316388;22;20379;-83
2022/09/01 19:55:00;;;;;;;3.63;2.07;;;23.00;11.20;;;;;;6344451;22;20450;-82
2022/09/01 19:57:45;;;;;;;3.70;1.73;;;23.00;1.60;;;;;;6344666;22;20393;-84
2022/09/01 20:00:23;;;;;;;3.37;2.10;;;22.80;1.70;;;;;;6345886;22;20382;-84
2022/09/01 20:02:54;;;;;;;5.27;1.50;;;22.80;2.10;;;;;;6317154;22;21044;-83
2022/09/01 20:05:40;;;;;;;4.37;1.97;;;22.70;2.40;;;;;;6344170;22;20744;-84
2022/09/01 20:08:24;;;;;;;4.43;1.80;;;22.70;2.00;;;;;;6317948;22;20813;-84
2022/09/01 20:11:06;;;;;;;4.00;1.60;;;22.60;2.70;;;;;;6344815;22;20399;-84
2022/09/01 20:13:43;;;;;;;4.23;1.60;;;22.60;2.40;;;;;;6317299;22;20422;-84
2022/09/01 20:16:27;;;;;;;4.23;1.50;;;22.60;2.80;;;;;;6344774;22;20358;-84
2022/09/01 22:50:17;;;;;;;8.33;3.67;;;19.00;11.30;;;;;;5060873;28;20607;-84
2022/09/01 22:52:43;;;;;;;9.43;3.97;;;18.80;19.40;;;;;;5037956;28;20468;-84
2022/09/01 22:55:09;;;;;;;9.27;3.27;;;18.90;19.90;;;;;;5041675;28;20241;-84
2022/09/01 22:57:35;;;;;;;14.07;3.13;;;19.00;20.10;;;;;;5040874;28;20239;-84
2022/09/01 23:00:05;;;;;;;9.90;3.40;;;19.10;20.90;;;;;;5039512;28;20485;-84
2022/09/01 23:02:30;;;;;;;13.63;3.17;;;19.10;21.20;;;;;;5038443;28;20455;-84
2022/09/01 23:04:56;;;;;;;15.80;3.20;;;19.20;21.30;;;;;;5040426;28;20459;-84
2022/09/01 23:07:21;;;;;;;9.53;3.00;;;19.30;22.10;;;;;;5051072;28;20170;-84
2022/09/01 23:09:47;;;;;;;10.17;4.50;;;19.30;22.00;;;;;;5038959;28;20196;-85
2022/09/01 23:12:13;;;;;;;12.60;3.57;;;19.40;22.90;;;;;;5040706;28;20209;-86
2022/09/01 23:14:38;;;;;;;9.93;3.23;;;19.40;23.10;;;;;;5036963;28;20771;-84
2022/09/01 23:17:04;;;;;;;7.53;2.93;;;19.40;22.70;;;;;;5036645;28;20192;-85
2022/09/01 23:19:29;;;;;;;20.70;2.97;;;19.40;22.90;;;;;;5042658;28;20244;-84
2022/09/01 23:21:55;;;;;;;12.63;2.80;;;19.40;33.30;;;;;;5038030;28;20621;-84
2022/09/01 23:24:20;;;;;;;14.20;2.50;;;19.40;23.40;;;;;;5044084;28;20573;-84
2022/09/01 23:26:47;;;;;;;8.50;2.93;;;19.40;24.00;;;;;;5038564;28;20220;-84
2022/09/01 23:29:13;;;;;;;8.13;2.80;;;19.40;24.40;;;;;;5042841;28;20652;-84
2022/09/01 23:31:38;;;;;;;12.17;2.80;;;19.40;24.30;;;;;;5036086;28;20455;-85
2022/09/01 23:34:06;;;;;;;6.53;2.50;;;19.50;24.50;;;;;;5041613;28;20690;-85
2022/09/01 23:36:32;;;;;;;8.20;2.70;;;19.50;24.40;;;;;;5037800;28;20566;-86
2022/09/01 23:38:59;;;;;;;4.20;2.10;;;19.50;25.00;;;;;;5035570;28;20469;-86
2022/09/01 23:41:29;;;;;;;10.20;2.47;;;19.50;25.40;;;;;;5038798;28;20458;-86
2022/09/01 23:43:56;;;;;;;3.40;1.93;;;19.50;24.50;;;;;;5032811;28;20450;-86
2022/09/01 23:46:25;;;;;;;7.50;2.60;;;19.50;25.30;;;;;;5038539;28;20460;-86
2022/09/01 23:48:52;;;;;;;5.20;2.40;;;19.50;25.20;;;;;;5033082;28;20453;-86
2022/09/01 23:51:19;;;;;;;6.57;1.83;;;19.50;25.50;;;;;;5034717;28;20436;-86
2022/09/01 23:53:45;;;;;;;4.77;2.77;;;19.50;25.90;;;;;;5029361;28;20493;-86
2022/09/01 23:56:14;;;;;;;4.00;2.10;;;19.40;25.90;;;;;;5030919;28;20944;-86
2022/09/01 23:58:41;;;;;;;9.73;2.60;;;19.40;26.10;;;;;;5035963;28;20945;-87
